Time;durP1;ratioP1;P1;durP2;ratioP2;P2;SDS_P1;SDS_P2;PMS_P1;PMS_P2;Temp;Humidity;BMP_temperature;BMP_pressure;BME280_temperature;BME280_humidity;BME280_pressure;Samples;Min_cycle;Max_cycle;Signal;HPM_P1;HPM_P2
2020/12/29 00:00:25;;;;;;;3.50;1.60;;;;;;;;;;10439934;28;20211;-73
2020/12/29 00:05:27;;;;;;;4.10;1.60;;;;;;;;;;10450503;28;20689;-72
2020/12/29 00:10:29;;;;;;;3.87;1.60;;;;;;;;;;10446906;28;20189;-73
2020/12/29 00:15:30;;;;;;;2.37;0.73;;;;;;;;;;10450958;28;20201;-74
2020/12/29 00:20:33;;;;;;;1.23;0.90;;;;;;;;;;10443015;28;20696;-73
2020/12/29 00:25:34;;;;;;;4.07;1.30;;;;;;;;;;10436342;28;20324;-72
2020/12/29 00:30:36;;;;;;;2.83;1.30;;;;;;;;;;10440090;28;20193;-73
2020/12/29 00:35:38;;;;;;;0.97;0.60;;;;;;;;;;10438840;28;20228;-74
2020/12/29 00:40:40;;;;;;;2.20;0.80;;;;;;;;;;10450509;28;20335;-72
2020/12/29 00:45:41;;;;;;;2.63;1.20;;;;;;;;;;10447620;28;20299;-73
2020/12/29 00:50:44;;;;;;;0.67;0.47;;;;;;;;;;10445318;28;20234;-73
2020/12/29 00:55:45;;;;;;;2.50;1.20;;;;;;;;;;10451089;28;20319;-72
2020/12/29 01:00:47;;;;;;;3.20;1.50;;;;;;;;;;10439310;28;20295;-73
2020/12/29 01:05:49;;;;;;;5.93;1.87;;;;;;;;;;10423168;28;20221;-73
2020/12/29 01:10:52;;;;;;;2.03;0.90;;;;;;;;;;10446442;28;20330;-73
2020/12/29 01:15:53;;;;;;;8.27;1.90;;;;;;;;;;10429772;28;20278;-74
2020/12/29 01:20:56;;;;;;;11.43;3.33;;;;;;;;;;10428799;28;20641;-73
2020/12/29 01:25:57;;;;;;;5.30;1.37;;;;;;;;;;10465651;28;20248;-71
2020/12/29 01:30:59;;;;;;;5.23;1.93;;;;;;;;;;10436129;28;20610;-74
2020/12/29 01:36:01;;;;;;;7.73;2.57;;;;;;;;;;10444151;28;20201;-72
2020/12/29 01:41:03;;;;;;;1.97;0.90;;;;;;;;;;10434300;28;20235;-73
2020/12/29 01:46:04;;;;;;;7.10;2.60;;;;;;;;;;10444897;28;20257;-73
2020/12/29 01:51:07;;;;;;;2.80;1.20;;;;;;;;;;10435614;28;20177;-73
2020/12/29 01:56:10;;;;;;;1.87;1.00;;;;;;;;;;10438064;28;20750;-72
2020/12/29 02:01:15;;;;;;;7.27;2.83;;;;;;;;;;10435875;28;20258;-73
2020/12/29 02:06:19;;;;;;;3.17;1.13;;;;;;;;;;10437804;28;20569;-74
2020/12/29 02:11:21;;;;;;;1.23;0.73;;;;;;;;;;10441259;28;20526;-75
2020/12/29 02:16:22;;;;;;;1.97;1.07;;;;;;;;;;10441090;28;20200;-74
2020/12/29 02:21:29;;;;;;;1.13;0.80;;;;;;;;;;10450106;28;20191;-74
2020/12/29 02:26:33;;;;;;;1.27;0.63;;;;;;;;;;10442745;28;20664;-75
2020/12/29 02:31:34;;;;;;;1.37;0.80;;;;;;;;;;10437645;28;20246;-74
2020/12/29 02:36:36;;;;;;;2.83;0.90;;;;;;;;;;10442595;28;20223;-75
2020/12/29 02:41:38;;;;;;;1.73;0.93;;;;;;;;;;10462092;28;20199;-74
2020/12/29 02:46:40;;;;;;;1.93;0.80;;;;;;;;;;10430914;28;20684;-74
2020/12/29 02:51:41;;;;;;;1.40;0.90;;;;;;;;;;10431415;28;20201;-75
2020/12/29 02:56:44;;;;;;;1.07;0.67;;;;;;;;;;10434540;28;20216;-75
2020/12/29 03:01:45;;;;;;;1.87;0.70;;;;;;;;;;10463148;28;20192;-75
2020/12/29 03:06:47;;;;;;;1.83;0.70;;;;;;;;;;10454445;28;20683;-74
2020/12/29 03:11:49;;;;;;;1.47;0.80;;;;;;;;;;10425981;28;20185;-77
2020/12/29 03:16:51;;;;;;;1.43;0.80;;;;;;;;;;10450223;28;20750;-74
2020/12/29 03:21:56;;;;;;;0.60;0.43;;;;;;;;;;10433646;28;20181;-74
2020/12/29 03:26:58;;;;;;;2.40;0.90;;;;;;;;;;10449837;28;20335;-74
2020/12/29 03:32:00;;;;;;;1.53;0.90;;;;;;;;;;10459669;28;20351;-74
2020/12/29 03:37:01;;;;;;;1.23;0.60;;;;;;;;;;10438985;28;20205;-74
2020/12/29 03:42:04;;;;;;;1.97;0.80;;;;;;;;;;10468512;28;20202;-73
2020/12/29 03:47:06;;;;;;;1.13;0.53;;;;;;;;;;10438141;28;20339;-74
2020/12/29 03:52:08;;;;;;;3.60;0.83;;;;;;;;;;10437766;28;20284;-73
2020/12/29 03:57:11;;;;;;;1.00;0.60;;;;;;;;;;10449327;28;20219;-74
2020/12/29 04:02:12;;;;;;;0.97;0.70;;;;;;;;;;10452527;28;20193;-74
2020/12/29 04:07:14;;;;;;;0.93;0.60;;;;;;;;;;10447778;28;20690;-74
2020/12/29 04:12:16;;;;;;;1.10;0.70;;;;;;;;;;10453427;28;20288;-75
2020/12/29 04:17:17;;;;;;;0.43;0.30;;;;;;;;;;10444133;28;20200;-75
2020/12/29 04:22:19;;;;;;;1.13;0.60;;;;;;;;;;10417922;28;20181;-74
2020/12/29 04:27:21;;;;;;;1.13;0.77;;;;;;;;;;10447942;28;20296;-73
2020/12/29 04:32:23;;;;;;;1.87;0.90;;;;;;;;;;10438384;28;20558;-71
2020/12/29 04:37:24;;;;;;;2.20;1.00;;;;;;;;;;10450221;28;20195;-73
2020/12/29 04:42:28;;;;;;;1.50;0.80;;;;;;;;;;10446112;28;20305;-72
2020/12/29 04:47:29;;;;;;;1.77;0.70;;;;;;;;;;10440861;28;20282;-73
2020/12/29 04:52:31;;;;;;;1.73;0.60;;;;;;;;;;10422843;28;20683;-73
2020/12/29 04:57:33;;;;;;;2.37;0.80;;;;;;;;;;10450053;28;20259;-73
2020/12/29 05:02:35;;;;;;;0.90;0.57;;;;;;;;;;10447173;28;20525;-74
2020/12/29 05:07:37;;;;;;;1.77;0.40;;;;;;;;;;10449601;28;20751;-74
2020/12/29 05:12:50;;;;;;;1.00;0.40;;;;;;;;;;10445352;28;20291;-74
2020/12/29 05:17:51;;;;;;;0.83;0.50;;;;;;;;;;10430960;28;20201;-74
2020/12/29 05:22:53;;;;;;;0.60;0.60;;;;;;;;;;10406469;28;20236;-73
2020/12/29 05:27:55;;;;;;;0.67;0.50;;;;;;;;;;10417289;28;20279;-74
2020/12/29 05:32:57;;;;;;;2.07;0.40;;;;;;;;;;10454827;28;20295;-74
2020/12/29 05:38:01;;;;;;;0.60;0.50;;;;;;;;;;10426328;28;20223;-74
2020/12/29 05:43:04;;;;;;;0.90;0.50;;;;;;;;;;10455423;28;20769;-73
2020/12/29 05:48:05;;;;;;;1.00;0.60;;;;;;;;;;10460685;28;20247;-73
2020/12/29 05:53:07;;;;;;;0.20;0.20;;;;;;;;;;10444605;28;20205;-74
2020/12/29 05:58:11;;;;;;;0.20;0.20;;;;;;;;;;10445807;28;20228;-73
2020/12/29 06:03:12;;;;;;;1.00;0.63;;;;;;;;;;10441977;28;20228;-73
2020/12/29 06:08:16;;;;;;;1.13;0.60;;;;;;;;;;10446612;28;20188;-73
2020/12/29 06:13:25;;;;;;;0.77;0.40;;;;;;;;;;10447475;28;20259;-74
2020/12/29 06:18:32;;;;;;;1.97;0.77;;;;;;;;;;10447123;28;20198;-74
2020/12/29 06:23:38;;;;;;;1.90;0.73;;;;;;;;;;10440943;28;20241;-74
2020/12/29 06:28:46;;;;;;;2.03;0.80;;;;;;;;;;10444291;28;20198;-74
2020/12/29 06:33:53;;;;;;;1.90;0.90;;;;;;;;;;10457535;28;20224;-73
2020/12/29 06:38:56;;;;;;;1.13;0.60;;;;;;;;;;10445308;28;20192;-74
2020/12/29 06:43:59;;;;;;;2.10;1.10;;;;;;;;;;10451873;28;20279;-74
2020/12/29 06:49:17;;;;;;;2.30;1.03;;;;;;;;;;10471574;28;20295;-73
2020/12/29 06:54:20;;;;;;;2.17;0.70;;;;;;;;;;10453027;28;20200;-74
2020/12/29 06:59:23;;;;;;;4.27;0.97;;;;;;;;;;10429542;28;20652;-74
2020/12/29 07:04:24;;;;;;;1.77;0.30;;;;;;;;;;10463283;28;20209;-73
2020/12/29 07:09:26;;;;;;;2.43;0.80;;;;;;;;;;10440425;28;20283;-74
2020/12/29 07:14:30;;;;;;;3.47;0.97;;;;;;;;;;10448462;28;20212;-71
2020/12/29 07:19:32;;;;;;;1.80;0.77;;;;;;;;;;10414807;28;20220;-70
2020/12/29 07:24:33;;;;;;;1.90;0.60;;;;;;;;;;10447981;28;20209;-73
2020/12/29 07:29:49;;;;;;;0.17;0.17;;;;;;;;;;10444449;28;20245;-73
2020/12/29 07:34:51;;;;;;;1.83;0.70;;;;;;;;;;10432028;28;20730;-73
2020/12/29 07:39:53;;;;;;;2.20;0.97;;;;;;;;;;10434788;28;20216;-73
2020/12/29 07:44:55;;;;;;;1.27;0.90;;;;;;;;;;10466891;28;20220;-73
2020/12/29 07:49:59;;;;;;;1.27;0.90;;;;;;;;;;10443877;28;20636;-74
2020/12/29 07:55:05;;;;;;;2.20;0.80;;;;;;;;;;10445794;28;20597;-73
2020/12/29 08:00:08;;;;;;;1.00;0.80;;;;;;;;;;10464486;28;20269;-73
2020/12/29 08:05:10;;;;;;;1.63;0.87;;;;;;;;;;10446922;28;20240;-73
2020/12/29 08:10:11;;;;;;;1.13;0.70;;;;;;;;;;10441754;28;20255;-74
2020/12/29 08:15:23;;;;;;;2.23;0.80;;;;;;;;;;10446911;28;20255;-73
2020/12/29 08:20:24;;;;;;;1.03;0.90;;;;;;;;;;10453912;28;20185;-72
2020/12/29 08:25:30;;;;;;;0.30;0.10;;;;;;;;;;10441365;28;20282;-74
2020/12/29 08:30:33;;;;;;;0.63;0.30;;;;;;;;;;10456121;28;20640;-74
2020/12/29 08:35:42;;;;;;;2.93;0.77;;;;;;;;;;10440580;28;20657;-72
2020/12/29 08:40:47;;;;;;;12.60;5.43;;;;;;;;;;10454608;28;20625;-74
2020/12/29 08:45:53;;;;;;;1.33;0.67;;;;;;;;;;10458165;28;20315;-72
2020/12/29 08:50:54;;;;;;;1.90;0.70;;;;;;;;;;10460274;28;20188;-72
2020/12/29 08:55:56;;;;;;;2.17;0.80;;;;;;;;;;10457776;28;20278;-74
2020/12/29 09:00:58;;;;;;;0.97;0.83;;;;;;;;;;10440559;28;20610;-74
2020/12/29 09:06:00;;;;;;;0.70;0.70;;;;;;;;;;10456661;28;20538;-74
2020/12/29 09:11:08;;;;;;;2.57;0.90;;;;;;;;;;10437478;28;20205;-74
2020/12/29 09:16:12;;;;;;;0.70;0.70;;;;;;;;;;10450975;28;20219;-72
2020/12/29 09:21:20;;;;;;;1.97;1.00;;;;;;;;;;10425255;28;20193;-73
2020/12/29 09:26:21;;;;;;;1.93;1.00;;;;;;;;;;10453698;28;20740;-73
2020/12/29 09:31:24;;;;;;;1.30;1.10;;;;;;;;;;10439484;28;20198;-72
2020/12/29 09:36:39;;;;;;;1.80;1.20;;;;;;;;;;10434222;28;20295;-73
2020/12/29 09:41:41;;;;;;;1.80;1.17;;;;;;;;;;10442798;28;20196;-72
2020/12/29 09:46:43;;;;;;;1.40;0.90;;;;;;;;;;10430777;28;20654;-72
2020/12/29 09:51:45;;;;;;;1.50;1.30;;;;;;;;;;10443388;28;20739;-73
2020/12/29 09:56:46;;;;;;;1.20;1.10;;;;;;;;;;10444498;28;20633;-72
2020/12/29 10:01:49;;;;;;;1.33;1.20;;;;;;;;;;10459451;28;20258;-73
2020/12/29 10:06:51;;;;;;;2.23;1.33;;;;;;;;;;10445614;28;20750;-73
2020/12/29 10:11:52;;;;;;;1.97;1.33;;;;;;;;;;10446930;28;20196;-74
2020/12/29 10:16:55;;;;;;;2.10;1.03;;;;;;;;;;10430447;28;20515;-74
2020/12/29 10:21:56;;;;;;;1.30;1.20;;;;;;;;;;10417539;28;20836;-74
2020/12/29 10:26:58;;;;;;;1.77;1.23;;;;;;;;;;10441146;28;20276;-72
2020/12/29 10:32:00;;;;;;;3.30;1.27;;;;;;;;;;10445271;28;20251;-73
2020/12/29 10:37:02;;;;;;;3.90;1.67;;;;;;;;;;10433779;28;20294;-74
2020/12/29 10:42:04;;;;;;;3.27;1.30;;;;;;;;;;10442123;28;20188;-74
2020/12/29 10:47:07;;;;;;;2.30;1.20;;;;;;;;;;10450426;28;20219;-74
2020/12/29 10:52:09;;;;;;;2.17;1.23;;;;;;;;;;10414315;28;20562;-74
2020/12/29 10:57:11;;;;;;;2.07;1.10;;;;;;;;;;10435492;28;20301;-74
2020/12/29 11:02:13;;;;;;;2.03;1.10;;;;;;;;;;10460020;28;20590;-73
2020/12/29 11:07:15;;;;;;;4.30;1.10;;;;;;;;;;10440443;28;20689;-74
2020/12/29 11:12:16;;;;;;;3.40;1.47;;;;;;;;;;10472962;28;20254;-71
2020/12/29 11:17:19;;;;;;;2.33;1.50;;;;;;;;;;10455403;28;20205;-72
2020/12/29 11:22:21;;;;;;;2.30;1.03;;;;;;;;;;10430981;28;20197;-74
2020/12/29 11:27:22;;;;;;;3.33;1.20;;;;;;;;;;10449112;28;20582;-72
2020/12/29 11:32:25;;;;;;;4.43;1.50;;;;;;;;;;10450844;28;20284;-72
2020/12/29 11:37:26;;;;;;;2.30;1.00;;;;;;;;;;10450336;28;20618;-74
2020/12/29 11:42:28;;;;;;;2.40;0.77;;;;;;;;;;10447457;28;20306;-73
2020/12/29 11:47:30;;;;;;;3.00;1.20;;;;;;;;;;10453717;28;20592;-72
2020/12/29 11:52:32;;;;;;;2.40;0.90;;;;;;;;;;10409424;28;20600;-74
2020/12/29 11:57:33;;;;;;;4.07;1.30;;;;;;;;;;10459820;28;20287;-73
2020/12/29 12:02:36;;;;;;;2.60;1.20;;;;;;;;;;10412516;28;20278;-73
2020/12/29 12:07:37;;;;;;;2.00;0.90;;;;;;;;;;10434319;28;20208;-74
2020/12/29 12:12:39;;;;;;;1.90;0.93;;;;;;;;;;10446995;28;20216;-72
2020/12/29 12:17:41;;;;;;;2.73;1.20;;;;;;;;;;10431353;28;20243;-73
2020/12/29 12:22:43;;;;;;;3.77;0.90;;;;;;;;;;10437139;28;20186;-74
2020/12/29 12:27:44;;;;;;;0.83;0.50;;;;;;;;;;10452986;28;20208;-73
2020/12/29 12:32:47;;;;;;;0.70;0.47;;;;;;;;;;10447273;28;20208;-74
2020/12/29 12:37:48;;;;;;;1.50;0.40;;;;;;;;;;10443394;28;20231;-73
2020/12/29 12:42:50;;;;;;;2.77;0.80;;;;;;;;;;10461554;28;20212;-73
2020/12/29 12:47:53;;;;;;;1.77;0.40;;;;;;;;;;10464302;28;20218;-74
2020/12/29 12:52:54;;;;;;;2.07;0.90;;;;;;;;;;10440721;28;20235;-74
2020/12/29 12:57:56;;;;;;;3.63;0.87;;;;;;;;;;10453340;28;20212;-73
2020/12/29 13:02:58;;;;;;;5.53;1.00;;;;;;;;;;10468279;28;20200;-75
2020/12/29 13:08:00;;;;;;;1.23;0.60;;;;;;;;;;10442380;28;20271;-73
2020/12/29 13:13:01;;;;;;;2.17;0.67;;;;;;;;;;10445448;28;20221;-73
2020/12/29 13:18:04;;;;;;;1.77;0.90;;;;;;;;;;10413028;28;20194;-74
2020/12/29 13:23:07;;;;;;;1.23;0.40;;;;;;;;;;10454330;28;20293;-74
2020/12/29 13:28:08;;;;;;;2.43;0.70;;;;;;;;;;10439751;28;20216;-74
2020/12/29 13:33:11;;;;;;;1.00;0.70;;;;;;;;;;10443866;28;20248;-72
2020/12/29 13:38:13;;;;;;;2.07;0.80;;;;;;;;;;10445385;28;20185;-74
2020/12/29 13:43:15;;;;;;;2.20;0.90;;;;;;;;;;10445207;28;20235;-73
2020/12/29 13:48:17;;;;;;;2.00;0.80;;;;;;;;;;10433342;28;20209;-71
2020/12/29 13:53:19;;;;;;;2.73;1.00;;;;;;;;;;10439435;28;20213;-73
2020/12/29 13:58:20;;;;;;;1.27;0.60;;;;;;;;;;10428290;28;20223;-73
2020/12/29 14:03:23;;;;;;;2.50;0.90;;;;;;;;;;10454632;28;21917;-74
2020/12/29 14:08:25;;;;;;;3.17;0.90;;;;;;;;;;10432891;28;20676;-73
2020/12/29 14:13:27;;;;;;;1.33;0.70;;;;;;;;;;10437258;28;20562;-74
2020/12/29 14:18:29;;;;;;;2.73;1.00;;;;;;;;;;10434056;28;20284;-74
2020/12/29 14:23:49;;;;;;;2.47;0.93;;;;;;;;;;10436141;28;20271;-73
2020/12/29 14:29:06;;;;;;;1.27;0.67;;;;;;;;;;10417211;28;20196;-74
2020/12/29 14:34:08;;;;;;;3.73;1.27;;;;;;;;;;10425029;28;20237;-75
2020/12/29 14:39:13;;;;;;;3.40;1.30;;;;;;;;;;10413258;28;20204;-73
2020/12/29 14:44:18;;;;;;;2.37;0.90;;;;;;;;;;10434049;28;20279;-74
2020/12/29 14:49:29;;;;;;;4.00;1.20;;;;;;;;;;10422009;28;20296;-73
2020/12/29 14:54:33;;;;;;;7.07;1.93;;;;;;;;;;10431999;28;20295;-73
2020/12/29 14:59:41;;;;;;;3.63;1.30;;;;;;;;;;10448385;28;20193;-73
2020/12/29 15:04:46;;;;;;;1.77;0.90;;;;;;;;;;10425734;28;20638;-73
2020/12/29 15:10:17;;;;;;;1.60;0.83;;;;;;;;;;10453267;28;20296;-73
2020/12/29 15:15:22;;;;;;;3.00;1.10;;;;;;;;;;10444920;28;20301;-74
2020/12/29 15:20:28;;;;;;;3.10;1.20;;;;;;;;;;10421650;28;20407;-74
2020/12/29 15:25:32;;;;;;;3.83;1.40;;;;;;;;;;10465049;28;20296;-72
2020/12/29 15:30:39;;;;;;;7.10;1.30;;;;;;;;;;10473646;28;20189;-74
2020/12/29 15:35:42;;;;;;;3.83;1.47;;;;;;;;;;10443394;28;20260;-73
2020/12/29 15:40:54;;;;;;;3.27;1.30;;;;;;;;;;10428922;28;20193;-74
2020/12/29 15:45:59;;;;;;;3.87;1.30;;;;;;;;;;10448813;28;20274;-74
2020/12/29 15:51:12;;;;;;;3.40;1.27;;;;;;;;;;10451727;28;20258;-73
2020/12/29 15:56:20;;;;;;;5.37;1.80;;;;;;;;;;10431348;28;20246;-74
2020/12/29 16:01:26;;;;;;;5.53;1.60;;;;;;;;;;10418785;28;20286;-74
2020/12/29 16:06:34;;;;;;;4.27;1.53;;;;;;;;;;10418557;28;20211;-74
2020/12/29 16:11:44;;;;;;;3.53;1.60;;;;;;;;;;10447006;28;20283;-73
2020/12/29 16:16:59;;;;;;;6.13;1.67;;;;;;;;;;10466692;28;20212;-75
2020/12/29 16:22:17;;;;;;;4.70;1.60;;;;;;;;;;10465677;28;20196;-73
2020/12/29 16:27:26;;;;;;;5.57;1.73;;;;;;;;;;10425791;28;20722;-74
2020/12/29 16:32:35;;;;;;;6.00;2.07;;;;;;;;;;10426040;28;20221;-74
2020/12/29 16:37:41;;;;;;;7.47;2.10;;;;;;;;;;10434312;28;20309;-74
2020/12/29 16:42:48;;;;;;;6.87;2.20;;;;;;;;;;10448947;28;20211;-73
2020/12/29 16:47:57;;;;;;;6.03;1.73;;;;;;;;;;10433622;28;20185;-74
2020/12/29 16:53:01;;;;;;;6.23;2.17;;;;;;;;;;10421726;28;20228;-72
2020/12/29 16:58:03;;;;;;;6.93;2.30;;;;;;;;;;10459318;28;20235;-72
2020/12/29 17:03:05;;;;;;;6.77;2.40;;;;;;;;;;10430931;28;20543;-72
2020/12/29 17:08:07;;;;;;;3.87;1.43;;;;;;;;;;10450930;28;20213;-72
2020/12/29 17:13:09;;;;;;;6.80;2.07;;;;;;;;;;10434960;28;20296;-73
2020/12/29 17:18:11;;;;;;;6.03;2.30;;;;;;;;;;10437363;28;20284;-71
2020/12/29 17:23:13;;;;;;;8.77;2.97;;;;;;;;;;10415912;28;20208;-72
2020/12/29 17:28:15;;;;;;;7.10;2.70;;;;;;;;;;10453999;28;20375;-73
2020/12/29 17:33:17;;;;;;;8.63;2.60;;;;;;;;;;10416980;28;20217;-73
2020/12/29 17:38:19;;;;;;;11.47;3.87;;;;;;;;;;10438953;28;20213;-71
2020/12/29 17:43:21;;;;;;;8.63;3.20;;;;;;;;;;10426271;28;20598;-70
2020/12/29 17:48:22;;;;;;;7.60;3.07;;;;;;;;;;10433312;28;20604;-74
2020/12/29 17:53:25;;;;;;;8.53;3.77;;;;;;;;;;10402370;28;20312;-72
2020/12/29 17:58:27;;;;;;;8.27;3.50;;;;;;;;;;10415548;28;20221;-73
2020/12/29 18:03:28;;;;;;;8.93;3.83;;;;;;;;;;10431033;28;20221;-73
2020/12/29 18:08:31;;;;;;;9.57;4.00;;;;;;;;;;10445624;28;20276;-71
2020/12/29 18:13:32;;;;;;;6.73;2.93;;;;;;;;;;10441494;28;20262;-72
2020/12/29 18:18:34;;;;;;;7.93;3.30;;;;;;;;;;10451890;28;20219;-71
2020/12/29 18:23:36;;;;;;;7.60;2.83;;;;;;;;;;10461626;28;20307;-73
2020/12/29 18:28:38;;;;;;;9.87;3.13;;;;;;;;;;10448914;28;20193;-73
2020/12/29 18:33:40;;;;;;;6.07;2.63;;;;;;;;;;10461998;28;20218;-71
2020/12/29 18:38:42;;;;;;;5.30;2.30;;;;;;;;;;10427887;28;20304;-71
2020/12/29 18:43:44;;;;;;;6.97;2.80;;;;;;;;;;10419162;28;20402;-71
2020/12/29 18:48:45;;;;;;;6.97;2.80;;;;;;;;;;10449275;28;20185;-73
2020/12/29 18:53:48;;;;;;;8.87;3.20;;;;;;;;;;10420341;28;20201;-71
2020/12/29 18:58:50;;;;;;;7.00;2.50;;;;;;;;;;10460393;28;20205;-70
2020/12/29 19:03:52;;;;;;;8.90;2.93;;;;;;;;;;10458028;28;20212;-73
2020/12/29 19:08:54;;;;;;;6.43;2.67;;;;;;;;;;10440424;28;20193;-71
2020/12/29 19:13:56;;;;;;;6.80;2.57;;;;;;;;;;10440761;28;20233;-72
2020/12/29 19:18:58;;;;;;;6.30;2.87;;;;;;;;;;10453844;28;20780;-73
2020/12/29 19:24:00;;;;;;;7.07;2.90;;;;;;;;;;10467826;28;20295;-73
2020/12/29 19:29:02;;;;;;;6.80;3.30;;;;;;;;;;10444045;28;20193;-72
2020/12/29 19:34:03;;;;;;;7.00;3.50;;;;;;;;;;10438197;28;20212;-72
2020/12/29 19:39:06;;;;;;;9.77;3.63;;;;;;;;;;10433822;28;20306;-73
2020/12/29 19:44:08;;;;;;;7.63;3.43;;;;;;;;;;10460274;28;20619;-72
2020/12/29 19:49:09;;;;;;;9.73;3.80;;;;;;;;;;10422925;28;20219;-72
2020/12/29 19:54:12;;;;;;;8.70;3.70;;;;;;;;;;10451549;28;20301;-73
2020/12/29 19:59:37;;;;;;;8.03;3.90;;;;;;;;;;10461593;28;20304;-75
2020/12/29 20:04:39;;;;;;;8.73;3.90;;;;;;;;;;10445342;28;20319;-73
2020/12/29 20:09:41;;;;;;;9.90;4.23;;;;;;;;;;10450767;28;20196;-72
2020/12/29 20:14:43;;;;;;;3.27;1.70;;;;;;;;;;10443665;28;20309;-72
2020/12/29 20:19:45;;;;;;;7.73;2.83;;;;;;;;;;10463208;28;20225;-73
2020/12/29 20:24:47;;;;;;;7.40;3.27;;;;;;;;;;10452283;28;20577;-75
2020/12/29 20:29:49;;;;;;;7.27;2.90;;;;;;;;;;10435379;28;20192;-73
2020/12/29 20:34:52;;;;;;;6.47;3.10;;;;;;;;;;10454896;28;20544;-70
2020/12/29 20:39:55;;;;;;;8.40;3.43;;;;;;;;;;10455740;28;20197;-72
2020/12/29 20:44:56;;;;;;;8.63;3.57;;;;;;;;;;10436894;28;20216;-73
2020/12/29 20:49:58;;;;;;;9.23;4.03;;;;;;;;;;10452134;28;20189;-73
2020/12/29 20:55:00;;;;;;;8.47;3.50;;;;;;;;;;10453431;28;20215;-73
2020/12/29 21:00:05;;;;;;;8.83;3.40;;;;;;;;;;10453751;28;20188;-72
2020/12/29 21:05:06;;;;;;;8.50;3.73;;;;;;;;;;10459068;28;20793;-73
2020/12/29 21:10:09;;;;;;;10.87;4.60;;;;;;;;;;10465491;28;20216;-73
2020/12/29 21:15:11;;;;;;;12.47;4.33;;;;;;;;;;10446055;28;20708;-73
2020/12/29 21:20:12;;;;;;;9.77;3.43;;;;;;;;;;10430598;28;20707;-74
2020/12/29 21:25:18;;;;;;;17.17;10.30;;;;;;;;;;10465479;28;20581;-73
2020/12/29 21:30:20;;;;;;;7.03;3.30;;;;;;;;;;10465615;28;20192;-72
2020/12/29 21:35:21;;;;;;;9.10;3.50;;;;;;;;;;10442620;28;20220;-71
2020/12/29 21:40:24;;;;;;;7.50;3.40;;;;;;;;;;10446468;28;20274;-71
2020/12/29 21:45:25;;;;;;;7.40;3.03;;;;;;;;;;10454781;28;20315;-72
2020/12/29 21:50:27;;;;;;;7.77;3.50;;;;;;;;;;10442972;28;20189;-73
2020/12/29 21:55:30;;;;;;;8.03;3.20;;;;;;;;;;10448207;28;20299;-72
2020/12/29 22:00:31;;;;;;;7.87;3.23;;;;;;;;;;10463488;28;20187;-72
2020/12/29 22:05:33;;;;;;;7.93;3.07;;;;;;;;;;10459962;28;20297;-74
2020/12/29 22:10:35;;;;;;;7.43;3.30;;;;;;;;;;10461815;28;20733;-74
2020/12/29 22:15:37;;;;;;;7.70;2.60;;;;;;;;;;10464603;28;20251;-74
2020/12/29 22:20:39;;;;;;;6.73;2.57;;;;;;;;;;10432372;28;20202;-73
2020/12/29 22:25:41;;;;;;;8.23;3.23;;;;;;;;;;10451058;28;20299;-74
2020/12/29 22:30:44;;;;;;;6.47;3.10;;;;;;;;;;10458172;28;20623;-72
2020/12/29 22:35:45;;;;;;;7.23;2.80;;;;;;;;;;10451327;28;20213;-71
2020/12/29 22:40:48;;;;;;;9.00;3.20;;;;;;;;;;10424676;28;20777;-71
2020/12/29 22:45:49;;;;;;;8.07;3.37;;;;;;;;;;10438630;28;20286;-72
2020/12/29 22:50:51;;;;;;;7.00;2.83;;;;;;;;;;10444713;28;20726;-75
2020/12/29 22:55:54;;;;;;;3.90;1.67;;;;;;;;;;10439630;28;20220;-73
2020/12/29 23:00:55;;;;;;;8.90;3.30;;;;;;;;;;10465465;28;20197;-72
2020/12/29 23:05:57;;;;;;;6.73;3.03;;;;;;;;;;10437664;28;20209;-72
2020/12/29 23:11:01;;;;;;;4.50;2.10;;;;;;;;;;10465336;28;20225;-73
2020/12/29 23:16:03;;;;;;;7.80;2.80;;;;;;;;;;10445626;28;20216;-72
2020/12/29 23:21:06;;;;;;;8.80;3.20;;;;;;;;;;10456884;28;20193;-73
2020/12/29 23:26:10;;;;;;;5.80;2.30;;;;;;;;;;10407926;28;20201;-73
2020/12/29 23:31:13;;;;;;;7.70;3.23;;;;;;;;;;10434958;28;20192;-73
2020/12/29 23:36:14;;;;;;;7.53;2.83;;;;;;;;;;10444961;28;20213;-72
2020/12/29 23:41:17;;;;;;;7.07;2.63;;;;;;;;;;10452851;28;20540;-72
2020/12/29 23:46:18;;;;;;;7.00;3.17;;;;;;;;;;10442118;28;20546;-73
2020/12/29 23:51:20;;;;;;;6.30;2.57;;;;;;;;;;10418884;28;20218;-70
2020/12/29 23:56:22;;;;;;;5.27;2.40;;;;;;;;;;10433569;28;20286;-73
